ADDS METAR Data INFO
IDs: Format: Raw Decoded Include TAF

Data at: 1751 UTC 21 Oct 2017

KVLD 211653Z 12010G17KT 050V160 10SM SCT040 SCT050 27/18 A3021 RMK AO2 SLP237 T02720178
KVLD 211553Z 11009G16KT 10SM CLR 26/18 A3022 RMK AO2 SLP239 T02610183
KVLD 211453Z 08006KT 10SM CLR 24/19 A3023 RMK AO2 SLP242 T02440189 51011
KVLD 211353Z 08006KT 10SM CLR 22/18 A3023 RMK AO2 SLP242 T02220183
KVLD 211253Z 07006KT 10SM CLR 19/17 A3021 RMK AO2 SLP237 T01940172
KVLD 211153Z 06003KT 10SM CLR 18/17 A3020 RMK AO2 SLP232 T01780167 10194 20178 53012
KVLD 211053Z 06004KT 10SM CLR 18/17 A3018 RMK AO2 SLP228 T01780167
KVLD 210953Z AUTO 05005KT 10SM FEW027 18/17 A3017 RMK AO2 SLP222 T01780167
KVLD 210853Z AUTO 07004KT 10SM CLR 18/17 A3016 RMK AO2 SLP219 T01830167 55004
KVLD 210753Z AUTO 07005KT 10SM CLR 19/17 A3015 RMK AO2 SLP216 T01890172
KVLD 210653Z AUTO 08005KT 10SM CLR 19/17 A3016 RMK AO2 SLP220 T01940172
KVLD 210553Z AUTO 06005KT 10SM CLR 19/18 A3017 RMK AO2 SLP223 T01940178 10233 20183 58002
KVLD 210453Z AUTO 00000KT 10SM BKN041 19/18 A3018 RMK AO2 SLP226 T01890183 402830128
KVLD 210353Z AUTO 00000KT 10SM CLR 19/18 A3019 RMK AO2 SLP229 T01940183
KVLD 210253Z AUTO 10003KT 10SM CLR 21/18 A3018 RMK AO2 SLP226 T02060183 53012
KVLD 210153Z 11004KT 10SM CLR 22/18 A3016 RMK AO2 SLP218 T02170183
KVLD 210053Z 11005KT 10SM CLR 23/18 A3015 RMK AO2 SLP215 T02280183
KVLD 202353Z 08004KT 10SM CLR 23/16 A3014 RMK AO2 SLP214 T02330161 10283 20217 53003
KVLD 202253Z 00000KT 10SM CLR 24/15 A3013 RMK AO2 SLP209 T02440150
KVLD 202153Z 06008KT 10SM CLR 27/14 A3012 RMK AO2 SLP207 T02670144
KVLD 202053Z 11008KT 10SM CLR 28/14 A3013 RMK AO2 SLP211 T02780139 56015
KVLD 201953Z 08009KT 050V110 10SM FEW050 28/16 A3014 RMK AO2 SLP213 T02830156
KVLD 201853Z 05006KT 10SM CLR 27/17 A3015 RMK AO2 SLP216 T02720167
KVLD 201753Z 08006KT 10SM CLR 27/17 A3018 RMK AO2 SLP225 T02670172 10272 20144 58021
KVLD 201653Z 04007KT 350V060 10SM CLR 26/18 A3020 RMK AO2 SLP235 T02610178
KVLD 201553Z VRB06KT 10SM CLR 24/17 A3022 RMK AO2 SLP241 T02440172
KVLD 201453Z 03009KT 10SM CLR 23/16 A3024 RMK AO2 SLP246 T02280161 53008
KVLD 201353Z 07006KT 10SM CLR 21/16 A3024 RMK AO2 SLP245 T02060156
KVLD 201253Z 06006KT 10SM CLR 17/15 A3022 RMK AO2 SLP239 T01720150
KVLD 201153Z 02004KT 10SM CLR 14/13 A3022 RMK AO2 SLP239 T01390133 10156 20128 51009
KVLD 201053Z 00000KT 8SM CLR 13/13 A3021 RMK AO2 SLP237 T01280128
KVLD 200953Z AUTO 04003KT 10SM CLR 15/14 A3019 RMK AO2 SLP231 T01500144
KVLD 200853Z AUTO 03004KT 10SM CLR 14/14 A3019 RMK AO2 SLP229 T01440139 55000
KVLD 200753Z AUTO 03003KT 10SM CLR 14/14 A3019 RMK AO2 SLP229 T01440139
KVLD 200653Z AUTO 00000KT 10SM CLR 14/13 A3019 RMK AO2 SLP229 T01390133
KVLD 200553Z AUTO 03003KT 10SM CLR 14/14 A3019 RMK AO2 SLP229 T01440139 10222 20144 58004